MSC Krittika — H3RV — position and weather

sailwx.info

Track history (hours):
 
Tides and Currents Weather Stations Pressure Air Temp Water Temp Dewpoint Dewpoint Depression Visibility Wind Speed Wind Dir Waves Ship Positions

MSC Krittika

Last reported at 2015-Jul-02 22:34 UTC. Time now 2015-Jul-03 17:16 UTC.
Position S 26°46' E 153°12'.

Length 202 m; draft 10.8 m.

Type: Ship (hazmat cat A). MMSI: 354725000.

Date/timePositionNaut miles runAvg speedWind from/ knotsBaromVisibWave heightAir tempDewpointWater temp
2015-Jul-02 22:34S 26°46' E 153°12'1414.3
2015-Jul-02 21:34S 27°00' E 153°14'1514.5
2015-Jul-02 20:34S 27°14' E 153°20'1211.6
2015-Jul-02 19:32S 27°22' E 153°10'0 0.1
2015-Jul-02 18:32S 27°22' E 153°10'0 0.0
2015-Jul-02 17:32S 27°22' E 153°10'0 0.0
2015-Jul-02 16:32S 27°22' E 153°10'0 0.0
2015-Jul-02 15:26S 27°22' E 153°10'0 0.0
2015-Jul-02 14:29S 27°22' E 153°10'0 0.0
2015-Jul-02 13:23S 27°22' E 153°10'0 0.0
2015-Jul-02 12:26S 27°22' E 153°10'0 0.0
2015-Jul-02 11:26S 27°22' E 153°10'0 0.0
2015-Jul-02 10:32S 27°22' E 153°10'0 0.0
2015-Jul-02 09:32S 27°22' E 153°10'0 0.0
2015-Jul-02 08:32S 27°22' E 153°10'0 0.0
2015-Jul-02 07:32S 27°22' E 153°10'0 0.0
2015-Jul-02 06:14S 27°22' E 153°10'0 0.0
2015-Jul-02 05:23S 27°22' E 153°10'0 0.0
2015-Jul-02 04:32S 27°22' E 153°10'0 0.0
2015-Jul-02 03:32S 27°22' E 153°10'0 0.0
2015-Jul-02 02:20S 27°22' E 153°10'0 0.0
2015-Jul-02 01:11S 27°22' E 153°10'0 0.0
2015-Jul-02 00:32S 27°22' E 153°10'0 0.0
2015-Jul-01 23:32S 27°22' E 153°10'0 0.0
2015-Jul-01 22:32S 27°22' E 153°10'0 0.0
2015-Jul-01 21:32S 27°22' E 153°10'0 0.0
2015-Jul-01 20:32S 27°22' E 153°10'6 6.3
2015-Jul-01 19:33S 27°17' E 153°14'1414.1
2015-Jul-01 18:33S 27°03' E 153°18'1615.7
2015-Jul-01 17:34S 26°50' E 153°09'8 8.0
2015-Jul-01 16:34S 26°45' E 153°17'1413.7
2015-Jul-01 15:33S 26°49' E 153°32'1212.5
2015-Jul-01 14:34S 26°53' E 153°45'1212.1
2015-Jul-01 13:33S 26°58' E 153°57'  
2015-Jun-28 02:04S 36°09' E 174°59'714.1
2015-Jun-28 01:34S 36°16' E 174°59'1212.4
2015-Jun-28 00:33S 36°29' E 174°59'1211.7
2015-Jun-27 23:33S 36°40' E 174°55'1010.0
2015-Jun-27 22:34S 36°49' E 174°50'3 2.9
2015-Jun-27 21:33S 36°51' E 174°47'0 0.0
2015-Jun-27 20:33S 36°51' E 174°47'0 0.0
2015-Jun-27 19:33S 36°51' E 174°47'0 0.0
2015-Jun-27 18:34S 36°51' E 174°47'0 0.0
2015-Jun-27 17:34S 36°51' E 174°47'0 0.0
2015-Jun-27 16:34S 36°51' E 174°47'0 0.0
2015-Jun-27 15:34S 36°51' E 174°47'0 0.0
2015-Jun-27 14:32S 36°51' E 174°47'0 0.0
2015-Jun-27 13:32S 36°51' E 174°47'0 0.0
2015-Jun-27 12:32S 36°51' E 174°47'0 0.0
2015-Jun-27 11:32S 36°51' E 174°47'0 0.0
2015-Jun-27 10:32S 36°51' E 174°47'5 4.9
2015-Jun-27 09:33S 36°46' E 174°49'3 2.6
2015-Jun-27 08:34S 36°44' E 174°52'0 0.0
2015-Jun-27 07:34S 36°44' E 174°52'0 0.0
2015-Jun-27 06:34S 36°44' E 174°52'0 0.0
2015-Jun-27 05:33S 36°44' E 174°52'0 0.1
2015-Jun-27 04:34S 36°44' E 174°51'0 0.0
2015-Jun-27 03:34S 36°44' E 174°51'0 0.0
2015-Jun-27 02:34S 36°44' E 174°51'0 0.0
2015-Jun-27 01:34S 36°44' E 174°51'0 0.0
2015-Jun-27 00:33S 36°44' E 174°51'1 1.0
2015-Jun-26 23:33S 36°43' E 174°52'9 8.9
2015-Jun-26 22:33S 36°36' E 174°58'8 7.9
2015-Jun-26 21:33S 36°30' E 175°05'8 7.8
2015-Jun-26 20:34S 36°26' E 175°13'8 7.1
2015-Jun-26 19:26S 36°22' E 175°22'15 8.2
2015-Jun-26 17:33S 36°27' E 175°40'  
Track history (hours):
 
Tides and Currents Weather Stations Pressure Air Temp Water Temp Dewpoint Dewpoint Depression Visibility Wind Speed Wind Dir Waves Ship Positions

MSC Krittika

Last reported at 2015-Jul-02 22:34 UTC. Time now 2015-Jul-03 17:16 UTC.
Position S 26°46' E 153°12'.

Length 202 m; draft 10.8 m.

Type: Ship (hazmat cat A). MMSI: 354725000.

Date/timePositionNaut miles runAvg speedWind from/ knotsBaromVisibWave heightAir tempDewpointWater temp
2015-Jul-02 22:34S 26°46' E 153°12'1414.3
2015-Jul-02 21:34S 27°00' E 153°14'1514.5
2015-Jul-02 20:34S 27°14' E 153°20'1211.6
2015-Jul-02 19:32S 27°22' E 153°10'0 0.1
2015-Jul-02 18:32S 27°22' E 153°10'0 0.0
2015-Jul-02 17:32S 27°22' E 153°10'0 0.0
2015-Jul-02 16:32S 27°22' E 153°10'0 0.0
2015-Jul-02 15:26S 27°22' E 153°10'0 0.0
2015-Jul-02 14:29S 27°22' E 153°10'0 0.0
2015-Jul-02 13:23S 27°22' E 153°10'0 0.0
2015-Jul-02 12:26S 27°22' E 153°10'0 0.0
2015-Jul-02 11:26S 27°22' E 153°10'0 0.0
2015-Jul-02 10:32S 27°22' E 153°10'0 0.0
2015-Jul-02 09:32S 27°22' E 153°10'0 0.0
2015-Jul-02 08:32S 27°22' E 153°10'0 0.0
2015-Jul-02 07:32S 27°22' E 153°10'0 0.0
2015-Jul-02 06:14S 27°22' E 153°10'0 0.0
2015-Jul-02 05:23S 27°22' E 153°10'0 0.0
2015-Jul-02 04:32S 27°22' E 153°10'0 0.0
2015-Jul-02 03:32S 27°22' E 153°10'0 0.0
2015-Jul-02 02:20S 27°22' E 153°10'0 0.0
2015-Jul-02 01:11S 27°22' E 153°10'0 0.0
2015-Jul-02 00:32S 27°22' E 153°10'0 0.0
2015-Jul-01 23:32S 27°22' E 153°10'0 0.0
2015-Jul-01 22:32S 27°22' E 153°10'0 0.0
2015-Jul-01 21:32S 27°22' E 153°10'0 0.0
2015-Jul-01 20:32S 27°22' E 153°10'6 6.3
2015-Jul-01 19:33S 27°17' E 153°14'1414.1
2015-Jul-01 18:33S 27°03' E 153°18'1615.7
2015-Jul-01 17:34S 26°50' E 153°09'8 8.0
2015-Jul-01 16:34S 26°45' E 153°17'1413.7
2015-Jul-01 15:33S 26°49' E 153°32'1212.5
2015-Jul-01 14:34S 26°53' E 153°45'1212.1
2015-Jul-01 13:33S 26°58' E 153°57'  
2015-Jun-28 02:04S 36°09' E 174°59'714.1
2015-Jun-28 01:34S 36°16' E 174°59'1212.4
2015-Jun-28 00:33S 36°29' E 174°59'1211.7
2015-Jun-27 23:33S 36°40' E 174°55'1010.0
2015-Jun-27 22:34S 36°49' E 174°50'3 2.9
2015-Jun-27 21:33S 36°51' E 174°47'0 0.0
2015-Jun-27 20:33S 36°51' E 174°47'0 0.0
2015-Jun-27 19:33S 36°51' E 174°47'0 0.0
2015-Jun-27 18:34S 36°51' E 174°47'0 0.0
2015-Jun-27 17:34S 36°51' E 174°47'0 0.0
2015-Jun-27 16:34S 36°51' E 174°47'0 0.0
2015-Jun-27 15:34S 36°51' E 174°47'0 0.0
2015-Jun-27 14:32S 36°51' E 174°47'0 0.0
2015-Jun-27 13:32S 36°51' E 174°47'0 0.0
2015-Jun-27 12:32S 36°51' E 174°47'0 0.0
2015-Jun-27 11:32S 36°51' E 174°47'0 0.0
2015-Jun-27 10:32S 36°51' E 174°47'5 4.9
2015-Jun-27 09:33S 36°46' E 174°49'3 2.6
2015-Jun-27 08:34S 36°44' E 174°52'0 0.0
2015-Jun-27 07:34S 36°44' E 174°52'0 0.0
2015-Jun-27 06:34S 36°44' E 174°52'0 0.0
2015-Jun-27 05:33S 36°44' E 174°52'0 0.1
2015-Jun-27 04:34S 36°44' E 174°51'0 0.0
2015-Jun-27 03:34S 36°44' E 174°51'0 0.0
2015-Jun-27 02:34S 36°44' E 174°51'0 0.0
2015-Jun-27 01:34S 36°44' E 174°51'0 0.0
2015-Jun-27 00:33S 36°44' E 174°51'1 1.0
2015-Jun-26 23:33S 36°43' E 174°52'9 8.9
2015-Jun-26 22:33S 36°36' E 174°58'8 7.9
2015-Jun-26 21:33S 36°30' E 175°05'8 7.8
2015-Jun-26 20:34S 36°26' E 175°13'8 7.1
2015-Jun-26 19:26S 36°22' E 175°22'15 8.2
2015-Jun-26 17:33S 36°27' E 175°40'  

Dump ship's entire track history